Time;durP1;ratioP1;P1;durP2;ratioP2;P2;SDS_P1;SDS_P2;PMS_P1;PMS_P2;Temp;Humidity;BMP_temperature;BMP_pressure;BME280_temperature;BME280_humidity;BME280_pressure;Samples;Min_cycle;Max_cycle;Signal;HPM_P1;HPM_P2
2022/01/24 00:00:15;;;;;;;21.27;13.32;;;;;;;;;;5014299;28;93055;-69
2022/01/24 00:02:43;;;;;;;20.95;13.23;;;;;;;;;;5017335;28;92350;-70
2022/01/24 00:05:10;;;;;;;18.80;12.40;;;;;;;;;;5019453;28;93879;-70
2022/01/24 00:07:36;;;;;;;23.27;12.85;;;;;;;;;;5029029;27;95292;-70
2022/01/24 00:10:04;;;;;;;19.25;12.45;;;;;;;;;;5032611;27;95629;-69
2022/01/24 00:12:55;;;;;;;21.70;12.55;;;;;;;;;;5024842;27;94295;-69
2022/01/24 00:15:51;;;;;;;19.35;12.25;;;;;;;;;;5017076;27;92777;-69
2022/01/24 00:18:24;;;;;;;22.35;13.13;;;;;;;;;;5029798;27;93376;-70
2022/01/24 00:26:43;;;;;;;19.27;12.43;;;;;;;;;;5028833;28;92404;-70
2022/01/24 00:29:06;;;;;;;23.45;14.73;;;;;;;;;;4996101;28;92392;-69
2022/01/24 00:31:33;;;;;;;26.38;15.82;;;;;;;;;;5013093;28;93362;-69
2022/01/24 00:33:59;;;;;;;29.23;16.75;;;;;;;;;;4976761;28;1117465;-69
2022/01/24 00:36:25;;;;;;;26.23;16.90;;;;;;;;;;5020803;27;92577;-69
2022/01/24 00:38:51;;;;;;;24.85;14.77;;;;;;;;;;5015329;28;93063;-69
2022/01/24 00:41:20;;;;;;;21.33;13.70;;;;;;;;;;5023944;28;92451;-69
2022/01/24 00:44:11;;;;;;;25.15;14.63;;;;;;;;;;5032668;28;92429;-69
2022/01/24 00:46:43;;;;;;;23.92;13.98;;;;;;;;;;5013573;28;93258;-69
2022/01/24 00:49:36;;;;;;;24.95;14.93;;;;;;;;;;5015805;28;92343;-70
2022/01/24 00:54:56;;;;;;;24.90;15.25;;;;;;;;;;4981681;28;93332;-69
2022/01/24 00:57:22;;;;;;;24.48;15.45;;;;;;;;;;5027478;27;93303;-69
2022/01/24 00:59:49;;;;;;;26.10;15.50;;;;;;;;;;5010590;28;95923;-70
2022/01/24 01:02:16;;;;;;;25.98;15.35;;;;;;;;;;5016766;27;92833;-69
2022/01/24 01:07:24;;;;;;;26.67;15.52;;;;;;;;;;5014600;28;93285;-69
2022/01/24 01:18:11;;;;;;;28.42;16.55;;;;;;;;;;5006643;28;92090;-70
2022/01/24 01:21:02;;;;;;;28.85;16.08;;;;;;;;;;5021300;28;92300;-70
2022/01/24 01:23:28;;;;;;;30.52;17.17;;;;;;;;;;5011854;28;92410;-70
2022/01/24 01:25:55;;;;;;;31.05;17.30;;;;;;;;;;5009144;28;96980;-70
2022/01/24 01:28:23;;;;;;;30.55;17.75;;;;;;;;;;5022569;28;95434;-69
2022/01/24 01:30:53;;;;;;;31.48;16.60;;;;;;;;;;5032442;27;93139;-70
2022/01/24 01:33:37;;;;;;;54.95;28.25;;;;;;;;;;5017304;27;92460;-69
2022/01/24 01:38:49;;;;;;;52.17;24.52;;;;;;;;;;5021900;27;92422;-69
2022/01/24 01:52:57;;;;;;;28.42;17.70;;;;;;;;;;5011477;28;94951;-69
2022/01/24 01:55:40;;;;;;;29.95;17.17;;;;;;;;;;5014778;28;92388;-69
2022/01/24 01:58:07;;;;;;;29.88;17.05;;;;;;;;;;5010204;28;92419;-69
2022/01/24 02:00:34;;;;;;;27.45;17.48;;;;;;;;;;5025442;28;92441;-69
2022/01/24 02:03:00;;;;;;;27.25;16.13;;;;;;;;;;5027261;27;92592;-69
2022/01/24 02:05:27;;;;;;;28.35;16.60;;;;;;;;;;5016246;27;93084;-69
2022/01/24 02:07:53;;;;;;;29.83;17.15;;;;;;;;;;5017865;28;92499;-71
2022/01/24 02:10:21;;;;;;;29.52;16.88;;;;;;;;;;5018073;27;91651;-70
2022/01/24 02:12:48;;;;;;;25.25;17.08;;;;;;;;;;5012014;28;93348;-69
2022/01/24 02:15:20;;;;;;;28.25;17.52;;;;;;;;;;5011507;28;92645;-69
2022/01/24 02:18:03;;;;;;;26.73;17.80;;;;;;;;;;5015852;28;94837;-69
2022/01/24 02:23:37;;;;;;;32.20;19.55;;;;;;;;;;5019330;28;92443;-69
2022/01/24 02:26:06;;;;;;;35.35;21.38;;;;;;;;;;4991198;28;93478;-70
2022/01/24 02:28:53;;;;;;;37.17;21.88;;;;;;;;;;5016455;28;92380;-69
2022/01/24 02:33:50;;;;;;;40.28;23.55;;;;;;;;;;5017128;27;92454;-69
2022/01/24 02:36:17;;;;;;;43.83;23.15;;;;;;;;;;5011789;28;91733;-70
2022/01/24 02:39:03;;;;;;;40.42;24.40;;;;;;;;;;5018503;27;92471;-69
2022/01/24 02:49:28;;;;;;;40.15;24.90;;;;;;;;;;5029932;27;92522;-69
2022/01/24 02:52:03;;;;;;;37.92;23.75;;;;;;;;;;5019300;27;92476;-69
2022/01/24 02:54:32;;;;;;;45.17;24.15;;;;;;;;;;5029378;28;92635;-70
2022/01/24 02:56:59;;;;;;;40.28;24.67;;;;;;;;;;5028573;28;92445;-70
2022/01/24 02:59:26;;;;;;;44.83;25.27;;;;;;;;;;5024396;28;94337;-70
2022/01/24 03:01:52;;;;;;;46.55;25.50;;;;;;;;;;5019038;28;93824;-69
2022/01/24 03:04:19;;;;;;;44.05;25.98;;;;;;;;;;5026555;28;92418;-70
2022/01/24 03:06:46;;;;;;;54.00;28.10;;;;;;;;;;5029746;27;92510;-69
2022/01/24 03:09:12;;;;;;;47.28;27.08;;;;;;;;;;5015119;28;94914;-69
2022/01/24 03:12:00;;;;;;;45.78;27.67;;;;;;;;;;5015212;28;95627;-69
2022/01/24 03:14:28;;;;;;;48.28;27.90;;;;;;;;;;5011951;28;93607;-69
2022/01/24 03:16:55;;;;;;;40.92;26.48;;;;;;;;;;5010898;28;92395;-70
2022/01/24 03:19:21;;;;;;;42.65;26.10;;;;;;;;;;5024448;28;92445;-69
2022/01/24 03:21:48;;;;;;;45.88;28.13;;;;;;;;;;5018743;27;92493;-70
2022/01/24 03:24:14;;;;;;;45.80;28.05;;;;;;;;;;5022021;28;92511;-69
2022/01/24 03:26:41;;;;;;;47.83;28.45;;;;;;;;;;4996841;28;91902;-69
2022/01/24 03:29:08;;;;;;;50.55;29.38;;;;;;;;;;5014308;28;92455;-69
2022/01/24 03:31:35;;;;;;;46.53;28.65;;;;;;;;;;5014397;28;94365;-70
2022/01/24 03:34:02;;;;;;;53.40;29.30;;;;;;;;;;5026628;28;94763;-69
2022/01/24 03:36:28;;;;;;;48.10;28.98;;;;;;;;;;5033337;28;92386;-69
2022/01/24 03:38:55;;;;;;;49.70;30.02;;;;;;;;;;5034028;27;93361;-69
2022/01/24 03:41:21;;;;;;;47.05;29.00;;;;;;;;;;5034406;27;92427;-69
2022/01/24 03:43:47;;;;;;;51.45;30.63;;;;;;;;;;5021045;27;92591;-69
2022/01/24 03:48:51;;;;;;;50.25;30.92;;;;;;;;;;5032001;28;92416;-69
2022/01/24 03:51:21;;;;;;;50.80;30.20;;;;;;;;;;5024325;28;92706;-70
2022/01/24 03:53:47;;;;;;;51.80;32.10;;;;;;;;;;5014156;28;93442;-69
2022/01/24 03:56:14;;;;;;;48.35;30.33;;;;;;;;;;5014016;28;92385;-69
2022/01/24 03:58:40;;;;;;;46.90;29.15;;;;;;;;;;5006023;28;95369;-69
2022/01/24 04:01:08;;;;;;;49.28;30.75;;;;;;;;;;5000436;28;92478;-69
2022/01/24 04:03:35;;;;;;;54.17;30.58;;;;;;;;;;5020939;28;92690;-69
2022/01/24 04:06:02;;;;;;;50.53;31.17;;;;;;;;;;5032165;28;94275;-69
2022/01/24 04:08:30;;;;;;;52.28;32.15;;;;;;;;;;5035056;27;92381;-69
2022/01/24 04:10:58;;;;;;;48.65;30.95;;;;;;;;;;5033600;28;93291;-69
2022/01/24 04:13:29;;;;;;;51.47;33.10;;;;;;;;;;5024596;27;93584;-69
2022/01/24 04:24:14;;;;;;;49.75;31.38;;;;;;;;;;4967243;28;94863;-69
2022/01/24 04:26:40;;;;;;;53.65;33.03;;;;;;;;;;4969889;28;94315;-70
2022/01/24 04:29:10;;;;;;;54.35;32.17;;;;;;;;;;4952155;28;94897;-70
2022/01/24 04:31:36;;;;;;;53.38;33.20;;;;;;;;;;4954364;28;92563;-69
2022/01/24 04:34:03;;;;;;;56.10;33.90;;;;;;;;;;4962697;28;92949;-70
2022/01/24 04:36:29;;;;;;;51.17;31.73;;;;;;;;;;4970884;28;92405;-69
2022/01/24 04:38:56;;;;;;;52.60;33.83;;;;;;;;;;4954469;28;92677;-69
2022/01/24 04:41:27;;;;;;;53.95;32.95;;;;;;;;;;4953153;28;92501;-69
2022/01/24 04:52:21;;;;;;;53.63;33.28;;;;;;;;;;4960424;28;92514;-70
2022/01/24 04:54:47;;;;;;;53.80;33.88;;;;;;;;;;4998989;27;93397;-69
2022/01/24 04:57:15;;;;;;;54.00;33.72;;;;;;;;;;5032972;27;92695;-69
2022/01/24 04:59:44;;;;;;;55.90;33.67;;;;;;;;;;5032879;27;93283;-70
2022/01/24 05:02:10;;;;;;;53.35;33.22;;;;;;;;;;5004110;27;93752;-69
2022/01/24 05:04:37;;;;;;;56.75;33.55;;;;;;;;;;5029581;27;92433;-69
2022/01/24 05:07:03;;;;;;;57.58;34.22;;;;;;;;;;5031707;27;92121;-69
2022/01/24 05:09:36;;;;;;;56.00;33.78;;;;;;;;;;5032386;27;92385;-69
2022/01/24 05:12:32;;;;;;;54.28;33.72;;;;;;;;;;5016019;28;92967;-70
2022/01/24 05:23:29;;;;;;;52.33;34.55;;;;;;;;;;5013425;28;92588;-69
2022/01/24 05:25:56;;;;;;;55.72;35.28;;;;;;;;;;5002014;28;92693;-69
2022/01/24 05:28:22;;;;;;;53.25;33.63;;;;;;;;;;5013524;28;93189;-69
2022/01/24 05:30:49;;;;;;;54.15;33.75;;;;;;;;;;5012326;28;93572;-69
2022/01/24 05:33:16;;;;;;;56.40;34.58;;;;;;;;;;5013171;28;91591;-70
2022/01/24 05:35:47;;;;;;;60.45;34.60;;;;;;;;;;5011937;28;92436;-69
2022/01/24 05:38:13;;;;;;;57.53;33.63;;;;;;;;;;5021098;28;92699;-69
2022/01/24 05:40:39;;;;;;;57.17;34.80;;;;;;;;;;5013329;28;94833;-69
2022/01/24 05:43:08;;;;;;;61.13;34.58;;;;;;;;;;5014273;28;93460;-69
2022/01/24 05:45:35;;;;;;;66.90;35.15;;;;;;;;;;5010687;28;92425;-69
2022/01/24 05:48:02;;;;;;;56.03;34.53;;;;;;;;;;5024313;27;92286;-69
2022/01/24 05:50:28;;;;;;;57.95;34.60;;;;;;;;;;5013543;27;92441;-69
2022/01/24 05:52:55;;;;;;;57.05;35.47;;;;;;;;;;5017019;28;93022;-69
2022/01/24 05:55:22;;;;;;;58.15;34.35;;;;;;;;;;5026900;28;93292;-69
2022/01/24 05:57:48;;;;;;;53.50;33.22;;;;;;;;;;5021215;27;92846;-69
2022/01/24 06:00:16;;;;;;;54.35;34.40;;;;;;;;;;5028126;28;92389;-69
2022/01/24 06:02:43;;;;;;;51.40;33.33;;;;;;;;;;5010999;28;93657;-69
2022/01/24 06:05:09;;;;;;;53.42;34.17;;;;;;;;;;5018961;28;94801;-70
2022/01/24 06:07:36;;;;;;;54.45;33.00;;;;;;;;;;5015501;28;96742;-70
2022/01/24 06:10:02;;;;;;;52.63;34.40;;;;;;;;;;5011684;28;93526;-69
2022/01/24 06:12:28;;;;;;;53.42;33.80;;;;;;;;;;5013412;28;92435;-69
2022/01/24 06:14:55;;;;;;;46.70;28.40;;;;;;;;;;5015131;28;93270;-69
2022/01/24 06:17:21;;;;;;;50.67;32.13;;;;;;;;;;5029285;27;92398;-69
2022/01/24 06:19:47;;;;;;;47.30;30.95;;;;;;;;;;5008361;28;92603;-69
2022/01/24 06:22:14;;;;;;;50.67;31.75;;;;;;;;;;5015200;28;93107;-69
2022/01/24 06:24:40;;;;;;;44.65;29.95;;;;;;;;;;5017157;28;92842;-69
2022/01/24 06:27:25;;;;;;;42.90;27.33;;;;;;;;;;5014014;28;93193;-69
2022/01/24 06:29:51;;;;;;;47.65;28.17;;;;;;;;;;5018009;28;95516;-69
2022/01/24 06:32:18;;;;;;;46.67;30.30;;;;;;;;;;5018561;28;92372;-69
2022/01/24 06:34:44;;;;;;;52.55;32.92;;;;;;;;;;5014756;27;92763;-69
2022/01/24 06:37:10;;;;;;;47.10;27.45;;;;;;;;;;5010646;28;93026;-69
2022/01/24 06:39:36;;;;;;;43.53;27.13;;;;;;;;;;5012531;28;92356;-69
2022/01/24 06:42:10;;;;;;;44.70;27.10;;;;;;;;;;5021246;28;92379;-69
2022/01/24 06:44:36;;;;;;;47.13;28.80;;;;;;;;;;5029254;27;92432;-69
2022/01/24 06:47:03;;;;;;;39.90;26.33;;;;;;;;;;5018108;27;93462;-69
2022/01/24 06:49:29;;;;;;;40.10;25.33;;;;;;;;;;5014421;28;92374;-69
2022/01/24 06:51:55;;;;;;;38.55;24.95;;;;;;;;;;5009687;28;92395;-70
2022/01/24 06:54:22;;;;;;;43.65;25.02;;;;;;;;;;5017856;28;95295;-70
2022/01/24 06:56:48;;;;;;;38.55;26.50;;;;;;;;;;5014052;28;93424;-70
2022/01/24 06:59:14;;;;;;;41.72;25.17;;;;;;;;;;5010732;28;92531;-70
2022/01/24 07:01:41;;;;;;;44.28;27.95;;;;;;;;;;5018756;28;93577;-70
2022/01/24 07:04:07;;;;;;;43.88;27.95;;;;;;;;;;5022174;28;94710;-70
2022/01/24 07:06:33;;;;;;;44.50;28.33;;;;;;;;;;5015810;28;92508;-71
2022/01/24 07:09:02;;;;;;;41.78;27.67;;;;;;;;;;5014547;28;92414;-70
2022/01/24 07:11:28;;;;;;;43.50;28.85;;;;;;;;;;5015023;27;91569;-71
2022/01/24 07:13:54;;;;;;;46.42;29.60;;;;;;;;;;5014573;28;92390;-71
2022/01/24 07:16:20;;;;;;;51.08;29.25;;;;;;;;;;5014240;28;93636;-70
2022/01/24 07:18:59;;;;;;;45.88;29.65;;;;;;;;;;5025023;28;95282;-71
2022/01/24 07:21:25;;;;;;;47.17;29.30;;;;;;;;;;5023666;27;95453;-71
2022/01/24 07:23:51;;;;;;;48.30;30.25;;;;;;;;;;5011668;28;94252;-71
2022/01/24 07:26:18;;;;;;;45.00;29.48;;;;;;;;;;4994267;28;92436;-72
2022/01/24 07:28:45;;;;;;;49.58;29.75;;;;;;;;;;4996948;28;92297;-72
2022/01/24 07:31:12;;;;;;;49.88;28.42;;;;;;;;;;5011167;28;92653;-71
2022/01/24 07:33:40;;;;;;;44.25;26.77;;;;;;;;;;5013938;28;92331;-71
2022/01/24 07:36:06;;;;;;;42.60;24.30;;;;;;;;;;5014751;28;92599;-72
2022/01/24 07:38:33;;;;;;;40.20;24.55;;;;;;;;;;5013911;27;92364;-71
2022/01/24 07:41:00;;;;;;;39.17;24.75;;;;;;;;;;5021133;28;93292;-71
2022/01/24 07:43:27;;;;;;;32.95;20.98;;;;;;;;;;5024425;27;95558;-72
2022/01/24 07:45:53;;;;;;;26.02;17.85;;;;;;;;;;5017177;28;93204;-71
2022/01/24 07:48:20;;;;;;;24.30;16.48;;;;;;;;;;5032417;28;93860;-70
2022/01/24 07:50:47;;;;;;;28.70;17.73;;;;;;;;;;5029710;28;92483;-71
2022/01/24 07:53:15;;;;;;;30.75;18.40;;;;;;;;;;5018377;27;92411;-71
2022/01/24 07:56:01;;;;;;;28.92;18.77;;;;;;;;;;5003575;28;92387;-70
2022/01/24 07:58:28;;;;;;;29.30;18.77;;;;;;;;;;5013350;28;92432;-77
2022/01/24 08:00:55;;;;;;;29.73;19.55;;;;;;;;;;5015928;28;92310;-72
2022/01/24 08:03:21;;;;;;;31.52;19.67;;;;;;;;;;5013895;28;92409;-71
2022/01/24 08:05:47;;;;;;;31.75;21.25;;;;;;;;;;5015241;27;92381;-71
2022/01/24 08:08:14;;;;;;;38.80;21.23;;;;;;;;;;5010714;28;95130;-71
2022/01/24 08:10:40;;;;;;;34.17;21.27;;;;;;;;;;5016596;28;92349;-71
2022/01/24 08:13:06;;;;;;;30.55;20.50;;;;;;;;;;5013232;28;93182;-71
2022/01/24 08:15:33;;;;;;;28.35;19.80;;;;;;;;;;5014657;28;92336;-71
2022/01/24 08:17:59;;;;;;;34.70;20.55;;;;;;;;;;5013725;28;92340;-70
2022/01/24 08:20:25;;;;;;;30.10;20.75;;;;;;;;;;5012917;28;92345;-70
2022/01/24 08:23:06;;;;;;;33.17;20.42;;;;;;;;;;5013459;28;93423;-70
2022/01/24 08:25:33;;;;;;;33.70;21.25;;;;;;;;;;5013583;28;91731;-70
2022/01/24 08:27:59;;;;;;;60.97;21.80;;;;;;;;;;5015857;28;92299;-70
2022/01/24 08:30:27;;;;;;;33.95;22.42;;;;;;;;;;5021853;28;92491;-71
2022/01/24 08:32:53;;;;;;;33.63;21.45;;;;;;;;;;5014705;28;94917;-70
2022/01/24 08:35:20;;;;;;;30.40;19.80;;;;;;;;;;5028710;27;92991;-71
2022/01/24 08:37:46;;;;;;;29.98;20.80;;;;;;;;;;5014897;27;92683;-71
2022/01/24 08:40:20;;;;;;;30.05;20.38;;;;;;;;;;5017848;28;93221;-71
2022/01/24 08:43:35;;;;;;;26.52;18.15;;;;;;;;;;5028851;27;93453;-70
2022/01/24 08:48:09;;;;;;;25.80;17.73;;;;;;;;;;5017903;28;93262;-70
2022/01/24 08:50:36;;;;;;;25.98;18.10;;;;;;;;;;5013965;28;92642;-76
2022/01/24 08:53:03;;;;;;;28.63;18.67;;;;;;;;;;5020648;28;92418;-70
2022/01/24 08:55:30;;;;;;;23.63;17.77;;;;;;;;;;5035827;27;92341;-71
2022/01/24 08:57:57;;;;;;;25.23;18.17;;;;;;;;;;5028085;28;94805;-70
2022/01/24 09:00:23;;;;;;;27.45;17.70;;;;;;;;;;5013410;28;94351;-70
2022/01/24 09:02:50;;;;;;;25.17;17.38;;;;;;;;;;5013708;28;92424;-70
2022/01/24 09:05:18;;;;;;;28.42;18.63;;;;;;;;;;5020917;28;92860;-70
2022/01/24 09:07:44;;;;;;;26.90;17.80;;;;;;;;;;5024892;27;93063;-70
2022/01/24 09:10:11;;;;;;;28.48;17.23;;;;;;;;;;5012635;28;93681;-70
2022/01/24 09:12:37;;;;;;;24.33;17.30;;;;;;;;;;5012871;28;92377;-70
2022/01/24 09:15:04;;;;;;;24.75;17.52;;;;;;;;;;5013662;28;92318;-70
2022/01/24 09:17:36;;;;;;;25.20;18.02;;;;;;;;;;5015776;28;93613;-70
2022/01/24 09:20:03;;;;;;;35.20;18.48;;;;;;;;;;5013995;28;92407;-71
2022/01/24 09:22:40;;;;;;;26.77;17.17;;;;;;;;;;5010822;28;95849;-70
2022/01/24 09:25:10;;;;;;;24.83;17.38;;;;;;;;;;4998261;28;92401;-70
2022/01/24 09:27:37;;;;;;;25.33;17.13;;;;;;;;;;5013901;28;92706;-71
2022/01/24 09:30:04;;;;;;;25.50;17.30;;;;;;;;;;5019319;27;94488;-70
2022/01/24 09:32:31;;;;;;;22.70;15.20;;;;;;;;;;5011836;28;92318;-71
2022/01/24 09:34:57;;;;;;;19.80;14.45;;;;;;;;;;4993936;28;93068;-71
2022/01/24 09:37:24;;;;;;;21.42;13.82;;;;;;;;;;5012174;28;92409;-71
2022/01/24 09:39:50;;;;;;;22.98;15.73;;;;;;;;;;5016325;28;91674;-71
2022/01/24 09:42:23;;;;;;;21.30;15.23;;;;;;;;;;5016390;28;92525;-71
2022/01/24 09:44:50;;;;;;;23.00;16.80;;;;;;;;;;5012948;28;92278;-71
2022/01/24 09:47:16;;;;;;;22.60;15.95;;;;;;;;;;5010941;28;94760;-70
2022/01/24 09:49:43;;;;;;;25.83;16.35;;;;;;;;;;5011939;28;93278;-70
2022/01/24 09:52:09;;;;;;;23.33;16.75;;;;;;;;;;5022447;28;92860;-71
2022/01/24 09:54:36;;;;;;;18.95;14.13;;;;;;;;;;5011800;28;92364;-71
2022/01/24 09:57:02;;;;;;;22.45;15.18;;;;;;;;;;5021451;28;93577;-70
2022/01/24 09:59:29;;;;;;;19.30;14.82;;;;;;;;;;5032121;27;92434;-70
2022/01/24 10:01:55;;;;;;;20.88;14.88;;;;;;;;;;5025713;27;93365;-70
2022/01/24 10:04:25;;;;;;;18.70;14.05;;;;;;;;;;5012281;28;91659;-70
2022/01/24 10:06:58;;;;;;;22.75;15.30;;;;;;;;;;5012563;28;92380;-71
2022/01/24 10:09:28;;;;;;;23.63;16.13;;;;;;;;;;5011891;28;93617;-70
2022/01/24 10:12:05;;;;;;;26.27;16.35;;;;;;;;;;5010928;28;95352;-70
2022/01/24 10:17:20;;;;;;;18.98;13.50;;;;;;;;;;5011810;28;93516;-70
2022/01/24 10:19:47;;;;;;;19.23;13.48;;;;;;;;;;5012303;28;92348;-70
2022/01/24 10:22:13;;;;;;;17.60;13.10;;;;;;;;;;5006765;28;93289;-71
2022/01/24 10:24:44;;;;;;;19.63;13.13;;;;;;;;;;5016042;28;92528;-71
2022/01/24 10:27:15;;;;;;;20.48;13.30;;;;;;;;;;5000375;28;93355;-71
2022/01/24 10:29:46;;;;;;;13.52;10.70;;;;;;;;;;5011577;28;92637;-71
2022/01/24 10:32:27;;;;;;;16.88;11.70;;;;;;;;;;5028797;28;92421;-70
2022/01/24 10:34:53;;;;;;;22.35;12.30;;;;;;;;;;5032802;27;92304;-69
2022/01/24 10:37:20;;;;;;;18.75;11.55;;;;;;;;;;5023354;28;96025;-72
2022/01/24 10:39:54;;;;;;;15.00;11.80;;;;;;;;;;5015000;28;92441;-71
2022/01/24 10:44:54;;;;;;;18.83;11.80;;;;;;;;;;5017867;28;93474;-71
2022/01/24 10:47:23;;;;;;;24.48;13.60;;;;;;;;;;5015323;28;92326;-70
2022/01/24 10:49:50;;;;;;;18.52;11.68;;;;;;;;;;5015368;28;93484;-70
2022/01/24 10:52:20;;;;;;;19.27;12.18;;;;;;;;;;5015721;28;92768;-70
2022/01/24 10:54:48;;;;;;;18.17;11.98;;;;;;;;;;5015763;28;93238;-71
2022/01/24 10:57:21;;;;;;;17.08;12.00;;;;;;;;;;5014463;28;93217;-72
2022/01/24 10:59:47;;;;;;;20.67;12.02;;;;;;;;;;5015449;28;92357;-70
2022/01/24 11:02:14;;;;;;;19.77;12.95;;;;;;;;;;5014320;28;94900;-71
2022/01/24 11:04:41;;;;;;;20.50;12.90;;;;;;;;;;5014040;28;93428;-72
2022/01/24 11:07:08;;;;;;;17.75;11.93;;;;;;;;;;5017650;28;92592;-71
2022/01/24 11:09:35;;;;;;;20.38;12.98;;;;;;;;;;5014900;28;93310;-72
2022/01/24 11:12:06;;;;;;;20.05;12.40;;;;;;;;;;5013676;28;92424;-70
2022/01/24 11:14:32;;;;;;;20.50;12.75;;;;;;;;;;5016123;28;92335;-70
2022/01/24 11:16:59;;;;;;;20.13;13.52;;;;;;;;;;5034534;27;93439;-72
2022/01/24 11:19:39;;;;;;;18.73;12.82;;;;;;;;;;5035525;27;91624;-74
2022/01/24 11:22:08;;;;;;;22.67;14.40;;;;;;;;;;5021448;28;92482;-72
2022/01/24 11:24:43;;;;;;;21.75;13.23;;;;;;;;;;5027033;27;93507;-74
2022/01/24 11:27:30;;;;;;;18.85;13.30;;;;;;;;;;5011510;28;94807;-69
2022/01/24 11:29:58;;;;;;;23.27;15.07;;;;;;;;;;5016718;28;95574;-69
2022/01/24 11:32:28;;;;;;;24.30;15.75;;;;;;;;;;5014706;28;92430;-70
2022/01/24 11:34:56;;;;;;;23.73;15.10;;;;;;;;;;5014934;28;92753;-70
2022/01/24 11:37:33;;;;;;;24.90;14.07;;;;;;;;;;5034176;27;93279;-70
2022/01/24 11:40:00;;;;;;;21.15;14.00;;;;;;;;;;5017872;27;92431;-69
2022/01/24 11:42:31;;;;;;;22.80;12.98;;;;;;;;;;5013451;28;92444;-70
2022/01/24 11:45:33;;;;;;;21.10;13.38;;;;;;;;;;5013828;28;92374;-70
2022/01/24 11:48:17;;;;;;;21.13;13.13;;;;;;;;;;5028384;28;92533;-70
2022/01/24 11:50:53;;;;;;;19.17;13.00;;;;;;;;;;4997069;28;92372;-69
2022/01/24 11:53:21;;;;;;;21.55;13.63;;;;;;;;;;5015321;28;95136;-69
2022/01/24 11:55:48;;;;;;;20.10;13.50;;;;;;;;;;5014153;28;95752;-68
2022/01/24 11:58:21;;;;;;;20.27;13.10;;;;;;;;;;5014273;28;93552;-68
2022/01/24 12:00:47;;;;;;;18.00;12.70;;;;;;;;;;5014414;28;92865;-68
2022/01/24 12:03:14;;;;;;;17.67;12.93;;;;;;;;;;5013246;28;93264;-68
2022/01/24 12:05:45;;;;;;;18.90;12.30;;;;;;;;;;5013423;28;92428;-69
2022/01/24 12:08:41;;;;;;;19.83;13.68;;;;;;;;;;5013951;28;93116;-69
2022/01/24 12:11:10;;;;;;;18.23;13.23;;;;;;;;;;4994186;28;91729;-70
2022/01/24 12:13:41;;;;;;;19.42;13.38;;;;;;;;;;4993644;28;93557;-70
2022/01/24 12:16:09;;;;;;;20.70;14.10;;;;;;;;;;4996533;28;93108;-70
2022/01/24 12:18:35;;;;;;;17.80;12.63;;;;;;;;;;5007131;28;95834;-68
2022/01/24 12:21:05;;;;;;;20.13;13.38;;;;;;;;;;5014970;28;92872;-68
2022/01/24 12:23:37;;;;;;;19.58;12.95;;;;;;;;;;5006636;28;92491;-68
2022/01/24 12:26:25;;;;;;;22.33;12.50;;;;;;;;;;5013533;28;92340;-68
2022/01/24 12:28:59;;;;;;;17.30;12.38;;;;;;;;;;5013769;28;92505;-69
2022/01/24 12:31:27;;;;;;;19.10;12.25;;;;;;;;;;5031193;27;93782;-69
2022/01/24 12:33:54;;;;;;;19.65;13.70;;;;;;;;;;5031693;27;92390;-71
2022/01/24 12:36:49;;;;;;;19.83;12.77;;;;;;;;;;5016947;28;91714;-69
2022/01/24 12:39:16;;;;;;;19.13;13.05;;;;;;;;;;5013008;28;93602;-69
2022/01/24 12:41:47;;;;;;;23.73;12.30;;;;;;;;;;5023429;28;93486;-70
2022/01/24 12:47:21;;;;;;;17.38;11.65;;;;;;;;;;5012116;28;92700;-69
2022/01/24 12:49:50;;;;;;;13.82;10.70;;;;;;;;;;5014113;28;93407;-70
2022/01/24 12:52:19;;;;;;;14.40;10.65;;;;;;;;;;5025689;27;92488;-70
2022/01/24 12:54:54;;;;;;;18.75;10.48;;;;;;;;;;5032437;28;92475;-70
2022/01/24 12:57:22;;;;;;;14.77;10.82;;;;;;;;;;5031149;27;93880;-69
2022/01/24 12:59:54;;;;;;;17.25;11.10;;;;;;;;;;5035216;27;92678;-69
2022/01/24 13:02:28;;;;;;;18.48;10.75;;;;;;;;;;5021504;27;91716;-70
2022/01/24 13:05:11;;;;;;;15.68;11.02;;;;;;;;;;5013370;28;92465;-70
2022/01/24 13:07:39;;;;;;;15.15;10.98;;;;;;;;;;5014672;28;97246;-70
2022/01/24 13:10:07;;;;;;;20.38;11.05;;;;;;;;;;5031427;27;94888;-74
2022/01/24 13:12:34;;;;;;;18.58;11.32;;;;;;;;;;5011416;27;95670;-70
2022/01/24 13:15:04;;;;;;;15.73;11.88;;;;;;;;;;5012959;28;92344;-70
2022/01/24 13:20:52;;;;;;;19.13;11.50;;;;;;;;;;5021571;28;94013;-69
2022/01/24 13:23:13;;;;;;;15.55;11.10;;;;;;;;;;4995451;28;93427;-69
2022/01/24 13:25:40;;;;;;;18.55;11.82;;;;;;;;;;5011143;28;93272;-69
2022/01/24 13:28:07;;;;;;;19.73;12.32;;;;;;;;;;5013215;28;91572;-69
2022/01/24 13:30:37;;;;;;;18.50;12.73;;;;;;;;;;5012043;28;92398;-69
2022/01/24 13:33:15;;;;;;;15.23;11.10;;;;;;;;;;5012153;28;93064;-70
2022/01/24 13:35:43;;;;;;;20.63;13.23;;;;;;;;;;5016663;28;95281;-70
2022/01/24 13:38:24;;;;;;;16.30;11.48;;;;;;;;;;5023468;28;93752;-70
2022/01/24 13:40:57;;;;;;;16.52;12.52;;;;;;;;;;5018979;28;92860;-69
2022/01/24 13:43:35;;;;;;;16.13;13.63;;;;;;;;;;5020916;27;93428;-69
2022/01/24 13:46:03;;;;;;;18.25;13.90;;;;;;;;;;5013105;28;93089;-69
2022/01/24 13:48:36;;;;;;;20.00;13.93;;;;;;;;;;5014050;28;93329;-69
2022/01/24 13:51:02;;;;;;;18.00;13.48;;;;;;;;;;5013843;28;93185;-69
2022/01/24 13:53:35;;;;;;;17.38;12.85;;;;;;;;;;5013028;28;92277;-69
2022/01/24 13:56:22;;;;;;;15.20;12.82;;;;;;;;;;5028548;28;93478;-69
2022/01/24 13:59:07;;;;;;;17.95;13.13;;;;;;;;;;5018521;28;92351;-69
2022/01/24 14:01:34;;;;;;;23.95;13.77;;;;;;;;;;5016738;27;95093;-70
2022/01/24 14:04:05;;;;;;;19.58;13.18;;;;;;;;;;5027982;28;93570;-69
2022/01/24 14:06:33;;;;;;;18.60;13.73;;;;;;;;;;5019635;27;92414;-69
2022/01/24 14:09:09;;;;;;;18.67;13.52;;;;;;;;;;5033556;28;92763;-70
2022/01/24 14:11:43;;;;;;;21.48;14.05;;;;;;;;;;5031752;27;92487;-70
2022/01/24 14:14:13;;;;;;;26.15;14.30;;;;;;;;;;5022041;27;92417;-70
2022/01/24 14:16:54;;;;;;;18.30;14.38;;;;;;;;;;4991681;28;92635;-69
2022/01/24 14:19:33;;;;;;;21.13;15.30;;;;;;;;;;4992552;28;91668;-69
2022/01/24 14:22:04;;;;;;;20.88;17.08;;;;;;;;;;5007486;28;93483;-69
2022/01/24 14:24:48;;;;;;;19.98;14.43;;;;;;;;;;5009332;28;92631;-69
2022/01/24 14:27:35;;;;;;;22.27;14.80;;;;;;;;;;5009542;28;94793;-70
2022/01/24 14:30:27;;;;;;;20.05;14.27;;;;;;;;;;5015655;28;95992;-71
2022/01/24 14:33:12;;;;;;;22.77;15.70;;;;;;;;;;5011350;28;92482;-70
2022/01/24 14:35:56;;;;;;;20.33;15.35;;;;;;;;;;5011631;28;92395;-71
2022/01/24 14:38:39;;;;;;;23.80;17.27;;;;;;;;;;5012657;28;94099;-71
2022/01/24 14:41:06;;;;;;;23.50;16.67;;;;;;;;;;5010879;28;92689;-69
2022/01/24 14:46:20;;;;;;;24.95;17.50;;;;;;;;;;5016163;27;92075;-71
2022/01/24 14:48:49;;;;;;;23.58;17.00;;;;;;;;;;5006078;28;92343;-72
2022/01/24 14:51:17;;;;;;;22.60;16.30;;;;;;;;;;5010520;28;93145;-72
2022/01/24 14:53:44;;;;;;;22.02;16.98;;;;;;;;;;5012332;28;94805;-71
2022/01/24 14:56:13;;;;;;;22.63;17.05;;;;;;;;;;5011092;28;96437;-71
2022/01/24 14:58:40;;;;;;;22.23;18.13;;;;;;;;;;5011671;28;92439;-70
2022/01/24 15:01:06;;;;;;;22.08;17.77;;;;;;;;;;5011225;28;92651;-71
2022/01/24 15:03:33;;;;;;;22.70;17.65;;;;;;;;;;5015605;28;95512;-72
2022/01/24 15:06:00;;;;;;;26.63;18.00;;;;;;;;;;5015654;27;92506;-72
2022/01/24 15:08:27;;;;;;;23.15;17.63;;;;;;;;;;5011069;28;92373;-72
2022/01/24 15:10:54;;;;;;;24.73;17.48;;;;;;;;;;5007988;28;92903;-70
2022/01/24 15:13:24;;;;;;;25.50;19.45;;;;;;;;;;5010264;28;92669;-70
2022/01/24 15:15:59;;;;;;;25.23;19.33;;;;;;;;;;5014450;28;92533;-71
2022/01/24 15:24:02;;;;;;;23.90;18.33;;;;;;;;;;5011274;28;93246;-70
2022/01/24 15:26:29;;;;;;;26.88;18.17;;;;;;;;;;5013137;28;93623;-70
2022/01/24 15:28:55;;;;;;;24.13;19.40;;;;;;;;;;5014748;28;92582;-70
2022/01/24 15:31:22;;;;;;;25.67;19.98;;;;;;;;;;5015647;28;92301;-70
2022/01/24 15:33:49;;;;;;;27.98;19.95;;;;;;;;;;5014434;28;93376;-70
2022/01/24 15:36:15;;;;;;;25.80;18.95;;;;;;;;;;5014997;28;92386;-70
2022/01/24 15:38:41;;;;;;;26.17;19.67;;;;;;;;;;5016745;28;92338;-70
2022/01/24 15:41:08;;;;;;;24.85;18.88;;;;;;;;;;5014294;28;92553;-70
2022/01/24 15:43:56;;;;;;;28.77;21.63;;;;;;;;;;5012728;27;95172;-70
2022/01/24 15:46:46;;;;;;;24.35;18.95;;;;;;;;;;5013694;28;92412;-70
2022/01/24 15:49:08;;;;;;;26.83;19.52;;;;;;;;;;5014429;28;92231;-70
2022/01/24 15:51:35;;;;;;;27.15;19.05;;;;;;;;;;5015295;28;92453;-70
2022/01/24 15:54:03;;;;;;;22.02;18.35;;;;;;;;;;5013761;28;92408;-70
2022/01/24 15:58:56;;;;;;;23.88;18.92;;;;;;;;;;5012932;28;92373;-70
2022/01/24 16:01:22;;;;;;;26.10;18.90;;;;;;;;;;5019445;28;91608;-70
2022/01/24 16:03:49;;;;;;;28.40;20.58;;;;;;;;;;5014551;27;92534;-70
2022/01/24 16:06:15;;;;;;;23.90;19.08;;;;;;;;;;5013903;28;92655;-70
2022/01/24 16:08:41;;;;;;;27.10;19.23;;;;;;;;;;5012113;28;94931;-70
2022/01/24 16:11:07;;;;;;;28.05;19.63;;;;;;;;;;5016791;28;95762;-70